Time,TemperatureF,DewpointF,PressureIn,WindDirection,WindDirectionDegrees,WindSpeedMPH,WindSpeedGustMPH,Humidity,HourlyPrecipIn,Conditions,Clouds,dailyrainin,SoftwareType,DateUTC
2013-04-21 00:00:00,44.6,23.0,29.96,West,261,3.6,3.6,42,0.00,,,0.00,WXlink_for_OpenVMS,2013-04-21 04:00:00,
2013-04-21 00:05:00,44.4,23.0,29.96,WNW,298,4.5,4.5,42,0.00,,,0.00,WXlink_for_OpenVMS,2013-04-21 04:05:00,
2013-04-21 00:10:00,44.2,23.0,29.96,West,267,3.6,3.6,42,0.00,,,0.00,WXlink_for_OpenVMS,2013-04-21 04:10:00,
2013-04-21 00:15:00,44.1,22.0,29.96,WNW,288,4.5,5.4,42,0.00,,,0.00,WXlink_for_OpenVMS,2013-04-21 04:15:00,
2013-04-21 00:20:00,43.9,23.0,29.96,NW,314,4.9,8.1,43,0.00,,,0.00,WXlink_for_OpenVMS,2013-04-21 04:20:00,
2013-04-21 00:25:00,43.5,22.0,29.96,NW,314,5.4,5.8,42,0.00,,,0.00,WXlink_for_OpenVMS,2013-04-21 04:25:00,
2013-04-21 00:30:00,43.3,22.0,29.99,NW,306,4.5,4.5,42,0.00,,,0.00,WXlink_for_OpenVMS,2013-04-21 04:30:00,
2013-04-21 00:40:00,42.8,21.0,29.99,West,265,4.9,4.9,42,0.00,,,0.00,WXlink_for_OpenVMS,2013-04-21 04:40:00,
2013-04-21 00:45:00,42.6,21.0,29.99,WSW,250,5.4,5.8,42,0.00,,,0.00,WXlink_for_OpenVMS,2013-04-21 04:45:00,
2013-04-21 00:50:00,42.4,21.0,29.99,WNW,297,4.5,4.5,42,0.00,,,0.00,WXlink_for_OpenVMS,2013-04-21 04:50:00,
2013-04-21 00:55:00,42.3,21.0,29.99,WSW,257,5.4,5.4,42,0.00,,,0.00,WXlink_for_OpenVMS,2013-04-21 04:55:00,
2013-04-21 01:00:00,42.1,21.0,29.99,West,281,4.0,4.5,42,0.00,,,0.00,WXlink_for_OpenVMS,2013-04-21 05:00:00,
2013-04-21 01:05:00,41.9,20.0,29.99,NW,319,3.1,4.0,42,0.00,,,0.00,WXlink_for_OpenVMS,2013-04-21 05:05:00,
2013-04-21 01:10:00,41.7,21.0,29.99,SW,236,4.5,4.5,43,0.00,,,0.00,WXlink_for_OpenVMS,2013-04-21 05:10:00,
2013-04-21 01:15:00,41.5,21.0,29.99,WNW,291,3.6,4.0,43,0.00,,,0.00,WXlink_for_OpenVMS,2013-04-21 05:15:00,
2013-04-21 01:20:00,41.4,21.0,29.99,West,272,4.0,4.0,43,0.00,,,0.00,WXlink_for_OpenVMS,2013-04-21 05:20:00,
2013-04-21 01:25:00,41.2,20.0,29.99,NW,311,4.0,5.4,43,0.00,,,0.00,WXlink_for_OpenVMS,2013-04-21 05:25:00,
2013-04-21 01:30:00,41.0,20.0,30.02,WNW,299,3.1,3.1,43,0.00,,,0.00,WXlink_for_OpenVMS,2013-04-21 05:30:00,
2013-04-21 01:40:00,40.8,20.0,30.02,NW,309,0.0,0.0,43,0.00,,,0.00,WXlink_for_OpenVMS,2013-04-21 05:40:00,
2013-04-21 01:50:00,40.5,20.0,30.02,WNW,286,3.1,3.1,43,0.00,,,0.00,WXlink_for_OpenVMS,2013-04-21 05:50:00,
2013-04-21 01:55:00,40.3,20.0,30.02,WNW,302,4.5,4.9,44,0.00,,,0.00,WXlink_for_OpenVMS,2013-04-21 05:55:00,
2013-04-21 02:00:00,40.1,20.0,30.02,WNW,285,4.5,4.5,44,0.00,,,0.00,WXlink_for_OpenVMS,2013-04-21 06:00:00,
2013-04-21 02:05:00,39.9,19.0,30.02,WNW,294,4.9,7.2,43,0.00,,,0.00,WXlink_for_OpenVMS,2013-04-21 06:05:00,
2013-04-21 02:10:00,39.7,19.0,30.02,WNW,282,3.6,3.6,43,0.00,,,0.00,WXlink_for_OpenVMS,2013-04-21 06:10:00,
2013-04-21 02:15:00,39.7,20.0,30.02,WNW,282,4.5,4.5,44,0.00,,,0.00,WXlink_for_OpenVMS,2013-04-21 06:15:00,
2013-04-21 02:20:00,39.6,19.0,30.02,WNW,295,3.6,4.0,43,0.00,,,0.00,WXlink_for_OpenVMS,2013-04-21 06:20:00,
2013-04-21 02:25:00,39.4,19.0,30.02,WNW,301,4.0,4.9,43,0.00,,,0.00,WXlink_for_OpenVMS,2013-04-21 06:25:00,
2013-04-21 02:30:00,39.2,19.0,30.02,WNW,294,3.6,3.6,43,0.00,,,0.00,WXlink_for_OpenVMS,2013-04-21 06:30:00,
2013-04-21 02:40:00,39.0,18.0,30.02,WNW,298,4.0,4.9,43,0.00,,,0.00,WXlink_for_OpenVMS,2013-04-21 06:40:00,
2013-04-21 02:45:00,39.0,18.0,30.05,WNW,289,3.1,3.1,43,0.00,,,0.00,WXlink_for_OpenVMS,2013-04-21 06:45:00,
2013-04-21 02:50:00,38.8,18.0,30.05,WNW,294,2.7,3.6,43,0.00,,,0.00,WXlink_for_OpenVMS,2013-04-21 06:50:00,
2013-04-21 02:55:00,38.8,19.0,30.05,WNW,295,3.6,3.6,44,0.00,,,0.00,WXlink_for_OpenVMS,2013-04-21 06:55:00,
2013-04-21 03:00:00,38.7,19.0,30.05,WNW,288,3.1,3.6,44,0.00,,,0.00,WXlink_for_OpenVMS,2013-04-21 07:00:00,
2013-04-21 03:05:00,38.7,19.0,30.05,WSW,241,3.1,3.1,44,0.00,,,0.00,WXlink_for_OpenVMS,2013-04-21 07:05:00,
2013-04-21 03:10:00,38.5,18.0,30.05,WSW,249,3.1,3.1,44,0.00,,,0.00,WXlink_for_OpenVMS,2013-04-21 07:10:00,
2013-04-21 03:15:00,38.5,18.0,30.05,West,260,2.2,2.7,44,0.00,,,0.00,WXlink_for_OpenVMS,2013-04-21 07:15:00,
2013-04-21 03:20:00,38.3,18.0,30.05,NW,305,3.1,3.1,44,0.00,,,0.00,WXlink_for_OpenVMS,2013-04-21 07:20:00,
2013-04-21 03:25:00,38.3,18.0,30.05,WNW,290,2.2,2.7,44,0.00,,,0.00,WXlink_for_OpenVMS,2013-04-21 07:25:00,
2013-04-21 03:35:00,38.1,18.0,30.05,WNW,288,0.0,0.0,44,0.00,,,0.00,WXlink_for_OpenVMS,2013-04-21 07:35:00,
2013-04-21 03:45:00,37.9,18.0,30.08,WSW,254,0.0,0.0,44,0.00,,,0.00,WXlink_for_OpenVMS,2013-04-21 07:45:00,
2013-04-21 03:50:00,37.9,18.0,30.08,WNW,291,0.0,0.0,44,0.00,,,0.00,WXlink_for_OpenVMS,2013-04-21 07:50:00,
2013-04-21 03:55:00,37.8,18.0,30.08,West,279,0.0,0.0,44,0.00,,,0.00,WXlink_for_OpenVMS,2013-04-21 07:55:00,
2013-04-21 04:00:00,37.6,18.0,30.08,WNW,288,0.0,0.0,44,0.00,,,0.00,WXlink_for_OpenVMS,2013-04-21 08:00:00,
2013-04-21 04:05:00,37.6,18.0,30.08,WNW,296,0.0,0.0,44,0.00,,,0.00,WXlink_for_OpenVMS,2013-04-21 08:05:00,
2013-04-21 04:10:00,37.4,17.0,30.08,WNW,296,0.0,0.0,44,0.00,,,0.00,WXlink_for_OpenVMS,2013-04-21 08:10:00,
2013-04-21 04:15:00,37.4,17.0,30.08,West,267,0.0,0.0,44,0.00,,,0.00,WXlink_for_OpenVMS,2013-04-21 08:15:00,
2013-04-21 04:20:00,37.2,18.0,30.08,WNW,287,0.0,0.0,45,0.00,,,0.00,WXlink_for_OpenVMS,2013-04-21 08:20:00,
2013-04-21 04:25:00,37.0,18.0,30.08,West,279,0.0,0.0,45,0.00,,,0.00,WXlink_for_OpenVMS,2013-04-21 08:25:00,
2013-04-21 04:30:00,37.0,18.0,30.08,West,277,0.0,0.0,45,0.00,,,0.00,WXlink_for_OpenVMS,2013-04-21 08:30:00,
2013-04-21 04:40:00,36.9,17.0,30.08,WNW,282,0.0,0.0,45,0.00,,,0.00,WXlink_for_OpenVMS,2013-04-21 08:40:00,
2013-04-21 04:45:00,36.9,17.0,30.08,WNW,282,0.0,0.0,45,0.00,,,0.00,WXlink_for_OpenVMS,2013-04-21 08:45:00,
2013-04-21 04:50:00,36.9,17.0,30.08,WNW,289,0.0,0.0,45,0.00,,,0.00,WXlink_for_OpenVMS,2013-04-21 08:50:00,
2013-04-21 04:55:00,36.7,17.0,30.08,West,259,0.0,0.0,45,0.00,,,0.00,WXlink_for_OpenVMS,2013-04-21 08:55:00,
2013-04-21 05:00:00,36.7,17.0,30.08,West,259,0.0,0.0,45,0.00,,,0.00,WXlink_for_OpenVMS,2013-04-21 09:00:00,
2013-04-21 05:05:00,36.5,18.0,30.08,WSW,248,0.0,0.0,46,0.00,,,0.00,WXlink_for_OpenVMS,2013-04-21 09:05:00,
2013-04-21 05:10:00,36.5,18.0,30.08,WNW,292,0.0,0.0,46,0.00,,,0.00,WXlink_for_OpenVMS,2013-04-21 09:10:00,
2013-04-21 05:15:00,36.3,18.0,30.11,West,263,0.0,0.0,46,0.00,,,0.00,WXlink_for_OpenVMS,2013-04-21 09:15:00,
2013-04-21 05:20:00,36.3,18.0,30.11,West,278,0.0,0.0,46,0.00,,,0.00,WXlink_for_OpenVMS,2013-04-21 09:20:00,
2013-04-21 05:25:00,36.3,18.0,30.11,West,278,0.0,0.0,46,0.00,,,0.00,WXlink_for_OpenVMS,2013-04-21 09:25:00,
2013-04-21 05:35:00,36.0,17.0,30.11,West,262,0.0,0.0,46,0.00,,,0.00,WXlink_for_OpenVMS,2013-04-21 09:35:00,
2013-04-21 05:40:00,36.0,18.0,30.11,WNW,285,2.2,2.7,47,0.00,,,0.00,WXlink_for_OpenVMS,2013-04-21 09:40:00,
2013-04-21 05:50:00,35.8,18.0,30.11,WSW,258,2.7,3.6,47,0.00,,,0.00,WXlink_for_OpenVMS,2013-04-21 09:50:00,
2013-04-21 05:55:00,35.8,18.0,30.11,West,265,0.0,0.0,47,0.00,,,0.00,WXlink_for_OpenVMS,2013-04-21 09:55:00,
2013-04-21 06:00:00,35.8,18.0,30.14,WNW,282,0.0,0.0,47,0.00,,,0.00,WXlink_for_OpenVMS,2013-04-21 10:00:00,
2013-04-21 06:05:00,35.8,18.0,30.14,West,272,0.0,0.0,48,0.00,,,0.00,WXlink_for_OpenVMS,2013-04-21 10:05:00,
2013-04-21 06:10:00,35.6,18.0,30.14,West,276,0.0,0.0,48,0.00,,,0.00,WXlink_for_OpenVMS,2013-04-21 10:10:00,
2013-04-21 06:15:00,35.6,18.0,30.14,West,279,0.0,0.0,48,0.00,,,0.00,WXlink_for_OpenVMS,2013-04-21 10:15:00,
2013-04-21 06:20:00,35.6,18.0,30.14,West,269,0.0,0.0,48,0.00,,,0.00,WXlink_for_OpenVMS,2013-04-21 10:20:00,
2013-04-21 06:25:00,35.6,18.0,30.14,West,268,0.0,0.0,48,0.00,,,0.00,WXlink_for_OpenVMS,2013-04-21 10:25:00,
2013-04-21 06:30:00,35.6,18.0,30.17,West,268,0.0,0.0,49,0.00,,,0.00,WXlink_for_OpenVMS,2013-04-21 10:30:00,
2013-04-21 06:40:00,35.8,18.0,30.17,West,270,0.0,0.0,49,0.00,,,0.00,WXlink_for_OpenVMS,2013-04-21 10:40:00,
2013-04-21 06:45:00,35.8,18.0,30.17,WNW,282,0.0,0.0,49,0.00,,,0.00,WXlink_for_OpenVMS,2013-04-21 10:45:00,
2013-04-21 06:50:00,36.0,19.0,30.17,West,279,0.0,0.0,49,0.00,,,0.00,WXlink_for_OpenVMS,2013-04-21 10:50:00,
2013-04-21 06:55:00,36.1,19.0,30.17,West,279,0.0,0.0,49,0.00,,,0.00,WXlink_for_OpenVMS,2013-04-21 10:55:00,
2013-04-21 07:00:00,36.1,19.0,30.17,West,279,0.0,0.0,50,0.00,,,0.00,WXlink_for_OpenVMS,2013-04-21 11:00:00,
2013-04-21 07:05:00,36.3,19.0,30.17,NW,313,0.0,0.0,50,0.00,,,0.00,WXlink_for_OpenVMS,2013-04-21 11:05:00,
2013-04-21 07:10:00,36.5,20.0,30.17,WNW,298,2.7,3.1,50,0.00,,,0.00,WXlink_for_OpenVMS,2013-04-21 11:10:00,
2013-04-21 07:15:00,36.7,20.0,30.19,WSW,256,2.2,2.7,50,0.00,,,0.00,WXlink_for_OpenVMS,2013-04-21 11:15:00,
2013-04-21 07:25:00,37.0,20.0,30.19,WNW,295,0.0,0.0,50,0.00,,,0.00,WXlink_for_OpenVMS,2013-04-21 11:25:00,
2013-04-21 07:30:00,37.4,20.0,30.19,NW,319,0.0,0.0,50,0.00,,,0.00,WXlink_for_OpenVMS,2013-04-21 11:30:00,
2013-04-21 07:35:00,37.6,20.0,30.19,NW,320,0.0,0.0,49,0.00,,,0.00,WXlink_for_OpenVMS,2013-04-21 11:35:00,
2013-04-21 07:40:00,37.8,20.0,30.19,NW,315,4.0,4.0,49,0.00,,,0.00,WXlink_for_OpenVMS,2013-04-21 11:40:00,
2013-04-21 07:45:00,37.9,20.0,30.19,West,281,0.0,0.0,49,0.00,,,0.00,WXlink_for_OpenVMS,2013-04-21 11:45:00,
2013-04-21 07:55:00,38.5,21.0,30.19,WNW,300,0.0,0.0,49,0.00,,,0.00,WXlink_for_OpenVMS,2013-04-21 11:55:00,
2013-04-21 08:00:00,38.7,21.0,30.19,WNW,291,2.7,2.7,48,0.00,,,0.00,WXlink_for_OpenVMS,2013-04-21 12:00:00,
2013-04-21 08:05:00,38.7,21.0,30.19,WNW,301,4.0,4.0,48,0.00,,,0.00,WXlink_for_OpenVMS,2013-04-21 12:05:00,
2013-04-21 08:10:00,38.8,20.0,30.19,WNW,301,0.0,5.4,47,0.00,,,0.00,WXlink_for_OpenVMS,2013-04-21 12:10:00,
2013-04-21 08:15:00,38.8,20.0,30.22,WNW,286,0.0,0.0,47,0.00,,,0.00,WXlink_for_OpenVMS,2013-04-21 12:15:00,
2013-04-21 08:20:00,39.2,21.0,30.22,NNW,346,2.7,3.1,47,0.00,,,0.00,WXlink_for_OpenVMS,2013-04-21 12:20:00,
2013-04-21 08:25:00,39.4,21.0,30.22,WNW,294,0.0,0.0,47,0.00,,,0.00,WXlink_for_OpenVMS,2013-04-21 12:25:00,
2013-04-21 08:30:00,39.6,21.0,30.22,NNW,337,0.0,0.0,47,0.00,,,0.00,WXlink_for_OpenVMS,2013-04-21 12:30:00,
2013-04-21 08:35:00,39.7,21.0,30.22,WNW,288,3.6,4.9,46,0.00,,,0.00,WXlink_for_OpenVMS,2013-04-21 12:35:00,
2013-04-21 08:45:00,40.3,20.0,30.19,WNW,292,4.0,4.0,43,0.00,,,0.00,WXlink_for_OpenVMS,2013-04-21 12:45:00,
2013-04-21 08:50:00,40.3,19.0,30.19,West,267,2.7,3.1,42,0.00,,,0.00,WXlink_for_OpenVMS,2013-04-21 12:50:00,
2013-04-21 08:55:00,40.5,18.0,30.19,WNW,297,4.0,4.9,40,0.00,,,0.00,WXlink_for_OpenVMS,2013-04-21 12:55:00,
2013-04-21 09:00:00,40.6,18.0,30.22,NW,304,3.1,5.4,39,0.00,,,0.00,WXlink_for_OpenVMS,2013-04-21 13:00:00,
2013-04-21 09:05:00,41.0,17.0,30.22,WNW,286,3.1,3.1,38,0.00,,,0.00,WXlink_for_OpenVMS,2013-04-21 13:05:00,
2013-04-21 09:10:00,41.0,17.0,30.22,WNW,284,0.0,0.0,38,0.00,,,0.00,WXlink_for_OpenVMS,2013-04-21 13:10:00,
2013-04-21 09:15:00,41.2,17.0,30.22,North,357,0.0,0.0,37,0.00,,,0.00,WXlink_for_OpenVMS,2013-04-21 13:15:00,
2013-04-21 09:20:00,41.2,17.0,30.22,NNW,333,0.0,5.8,37,0.00,,,0.00,WXlink_for_OpenVMS,2013-04-21 13:20:00,
2013-04-21 09:30:00,41.5,17.0,30.22,NW,319,4.0,4.0,36,0.00,,,0.00,WXlink_for_OpenVMS,2013-04-21 13:30:00,
2013-04-21 09:35:00,41.5,17.0,30.22,NNW,330,4.0,5.8,36,0.00,,,0.00,WXlink_for_OpenVMS,2013-04-21 13:35:00,
2013-04-21 09:40:00,41.7,17.0,30.22,WNW,297,3.6,4.9,37,0.00,,,0.00,WXlink_for_OpenVMS,2013-04-21 13:40:00,
2013-04-21 09:50:00,42.1,18.0,30.22,NNW,333,3.1,6.7,37,0.00,,,0.00,WXlink_for_OpenVMS,2013-04-21 13:50:00,
2013-04-21 09:55:00,42.1,18.0,30.22,WNW,298,4.0,5.4,37,0.00,,,0.00,WXlink_for_OpenVMS,2013-04-21 13:55:00,
2013-04-21 10:00:00,42.3,18.0,30.25,WNW,290,0.0,2.2,37,0.00,,,0.00,WXlink_for_OpenVMS,2013-04-21 14:00:00,
2013-04-21 10:05:00,42.6,18.0,30.25,NW,306,3.6,5.4,37,0.00,,,0.00,WXlink_for_OpenVMS,2013-04-21 14:05:00,
2013-04-21 10:10:00,42.8,18.0,30.25,NNW,338,5.4,5.8,37,0.00,,,0.00,WXlink_for_OpenVMS,2013-04-21 14:10:00,
2013-04-21 10:15:00,42.8,18.0,30.25,NNW,327,4.5,5.4,37,0.00,,,0.00,WXlink_for_OpenVMS,2013-04-21 14:15:00,
2013-04-21 10:20:00,43.3,19.0,30.25,WNW,293,3.1,3.1,37,0.00,,,0.00,WXlink_for_OpenVMS,2013-04-21 14:20:00,
2013-04-21 10:25:00,43.5,19.0,30.25,NNW,330,4.0,4.0,37,0.00,,,0.00,WXlink_for_OpenVMS,2013-04-21 14:25:00,
2013-04-21 10:30:00,43.3,19.0,30.25,NW,318,3.1,3.6,37,0.00,,,0.00,WXlink_for_OpenVMS,2013-04-21 14:30:00,
2013-04-21 10:35:00,43.5,19.0,30.25,NW,311,3.1,3.1,37,0.00,,,0.00,WXlink_for_OpenVMS,2013-04-21 14:35:00,
2013-04-21 10:45:00,44.2,20.0,30.25,WNW,288,3.6,3.6,37,0.00,,,0.00,WXlink_for_OpenVMS,2013-04-21 14:45:00,
2013-04-21 10:50:00,44.8,21.0,30.25,NW,312,0.0,0.0,38,0.00,,,0.00,WXlink_for_OpenVMS,2013-04-21 14:50:00,
2013-04-21 10:55:00,45.3,21.0,30.25,West,281,4.5,4.5,38,0.00,,,0.00,WXlink_for_OpenVMS,2013-04-21 14:55:00,
2013-04-21 11:00:00,45.7,21.0,30.25,NW,320,3.6,5.4,37,0.00,,,0.00,WXlink_for_OpenVMS,2013-04-21 15:00:00,
2013-04-21 11:05:00,45.9,21.0,30.25,West,272,0.0,0.0,37,0.00,,,0.00,WXlink_for_OpenVMS,2013-04-21 15:05:00,
2013-04-21 11:10:00,46.0,21.0,30.25,WNW,295,2.2,5.4,37,0.00,,,0.00,WXlink_for_OpenVMS,2013-04-21 15:10:00,
2013-04-21 11:15:00,45.5,21.0,30.25,NNE,14,3.1,3.6,37,0.00,,,0.00,WXlink_for_OpenVMS,2013-04-21 15:15:00,
2013-04-21 11:20:00,45.5,21.0,30.25,SW,223,4.9,6.3,37,0.00,,,0.00,WXlink_for_OpenVMS,2013-04-21 15:20:00,
2013-04-21 11:30:00,46.4,22.0,30.28,SW,224,3.1,3.1,38,0.00,,,0.00,WXlink_for_OpenVMS,2013-04-21 15:30:00,
2013-04-21 11:35:00,46.4,22.0,30.28,West,276,0.0,2.7,37,0.00,,,0.00,WXlink_for_OpenVMS,2013-04-21 15:35:00,
2013-04-21 11:40:00,46.9,22.0,30.28,NNW,330,7.2,7.2,37,0.00,,,0.00,WXlink_for_OpenVMS,2013-04-21 15:40:00,
2013-04-21 11:45:00,47.1,22.0,30.25,NW,304,3.1,3.6,37,0.00,,,0.00,WXlink_for_OpenVMS,2013-04-21 15:45:00,
2013-04-21 11:50:00,47.3,23.0,30.25,West,260,0.0,0.0,38,0.00,,,0.00,WXlink_for_OpenVMS,2013-04-21 15:50:00,
2013-04-21 11:55:00,47.1,22.0,30.25,SSE,149,0.0,0.0,37,0.00,,,0.00,WXlink_for_OpenVMS,2013-04-21 15:55:00,
2013-04-21 12:05:00,48.2,23.0,30.25,West,279,4.5,5.8,37,0.00,,,0.00,WXlink_for_OpenVMS,2013-04-21 16:05:00,
2013-04-21 12:10:00,48.7,24.0,30.25,West,280,0.0,0.0,37,0.00,,,0.00,WXlink_for_OpenVMS,2013-04-21 16:10:00,
2013-04-21 12:15:00,49.3,24.0,30.28,North,353,3.6,3.6,37,0.00,,,0.00,WXlink_for_OpenVMS,2013-04-21 16:15:00,
2013-04-21 12:20:00,49.3,24.0,30.28,NW,307,3.6,3.6,37,0.00,,,0.00,WXlink_for_OpenVMS,2013-04-21 16:20:00,
2013-04-21 12:25:00,49.6,24.0,30.28,WNW,297,4.5,5.8,37,0.00,,,0.00,WXlink_for_OpenVMS,2013-04-21 16:25:00,
2013-04-21 12:30:00,49.8,24.0,30.28,East,90,0.0,2.7,36,0.00,,,0.00,WXlink_for_OpenVMS,2013-04-21 16:30:00,
2013-04-21 12:35:00,49.8,24.0,30.28,North,353,0.0,3.6,36,0.00,,,0.00,WXlink_for_OpenVMS,2013-04-21 16:35:00,
2013-04-21 12:40:00,50.2,24.0,30.28,West,278,2.7,3.6,36,0.00,,,0.00,WXlink_for_OpenVMS,2013-04-21 16:40:00,
2013-04-21 12:50:00,50.4,24.0,30.25,West,281,3.6,3.6,36,0.00,,,0.00,WXlink_for_OpenVMS,2013-04-21 16:50:00,
2013-04-21 12:55:00,51.1,25.0,30.25,NW,308,4.5,4.9,36,0.00,,,0.00,WXlink_for_OpenVMS,2013-04-21 16:55:00,
2013-04-21 13:00:00,51.3,25.0,30.25,WNW,288,3.1,3.1,36,0.00,,,0.00,WXlink_for_OpenVMS,2013-04-21 17:00:00,
2013-04-21 13:05:00,51.4,25.0,30.25,NW,307,2.7,2.7,36,0.00,,,0.00,WXlink_for_OpenVMS,2013-04-21 17:05:00,
2013-04-21 13:10:00,51.6,26.0,30.25,WNW,301,3.6,3.6,36,0.00,,,0.00,WXlink_for_OpenVMS,2013-04-21 17:10:00,
2013-04-21 13:15:00,52.0,26.0,30.25,West,265,4.5,4.9,36,0.00,,,0.00,WXlink_for_OpenVMS,2013-04-21 17:15:00,
2013-04-21 13:25:00,52.7,26.0,30.25,West,274,4.0,4.0,35,0.00,,,0.00,WXlink_for_OpenVMS,2013-04-21 17:25:00,
2013-04-21 13:30:00,52.5,26.0,30.25,SW,220,3.6,4.0,36,0.00,,,0.00,WXlink_for_OpenVMS,2013-04-21 17:30:00,
2013-04-21 13:35:00,53.1,26.0,30.25,NNW,329,3.1,3.1,35,0.00,,,0.00,WXlink_for_OpenVMS,2013-04-21 17:35:00,
2013-04-21 13:40:00,53.6,27.0,30.25,WNW,291,4.0,4.0,35,0.00,,,0.00,WXlink_for_OpenVMS,2013-04-21 17:40:00,
2013-04-21 13:50:00,53.6,27.0,30.25,WNW,289,4.5,4.5,35,0.00,,,0.00,WXlink_for_OpenVMS,2013-04-21 17:50:00,
2013-04-21 13:55:00,53.8,26.0,30.25,WNW,290,0.0,0.0,34,0.00,,,0.00,WXlink_for_OpenVMS,2013-04-21 17:55:00,
2013-04-21 14:00:00,54.0,26.0,30.25,NW,319,4.0,6.7,33,0.00,,,0.00,WXlink_for_OpenVMS,2013-04-21 18:00:00,
2013-04-21 14:05:00,52.5,24.0,30.25,North,10,2.2,3.1,33,0.00,,,0.00,WXlink_for_OpenVMS,2013-04-21 18:05:00,
2013-04-21 14:10:00,52.9,25.0,30.25,North,357,0.0,0.0,33,0.00,,,0.00,WXlink_for_OpenVMS,2013-04-21 18:10:00,
2013-04-21 14:15:00,53.1,24.0,30.25,WNW,303,0.0,0.0,32,0.00,,,0.00,WXlink_for_OpenVMS,2013-04-21 18:15:00,
2013-04-21 14:20:00,53.8,25.0,30.25,WNW,291,4.9,5.4,33,0.00,,,0.00,WXlink_for_OpenVMS,2013-04-21 18:20:00,
2013-04-21 14:25:00,54.7,26.0,30.25,NNW,342,2.7,2.7,33,0.00,,,0.00,WXlink_for_OpenVMS,2013-04-21 18:25:00,
2013-04-21 14:30:00,55.2,26.0,30.25,NNW,339,0.0,6.3,32,0.00,,,0.00,WXlink_for_OpenVMS,2013-04-21 18:30:00,
2013-04-21 14:35:00,55.0,26.0,30.25,NW,317,2.2,2.7,32,0.00,,,0.00,WXlink_for_OpenVMS,2013-04-21 18:35:00,
2013-04-21 14:45:00,55.4,27.0,30.25,West,279,4.0,4.9,33,0.00,,,0.00,WXlink_for_OpenVMS,2013-04-21 18:45:00,
2013-04-21 14:50:00,55.9,26.0,30.25,NW,319,4.0,5.4,31,0.00,,,0.00,WXlink_for_OpenVMS,2013-04-21 18:50:00,
2013-04-21 14:55:00,55.9,27.0,30.25,NNE,13,3.1,3.6,32,0.00,,,0.00,WXlink_for_OpenVMS,2013-04-21 18:55:00,
2013-04-21 15:00:00,54.5,24.0,30.25,NW,315,0.0,0.0,31,0.00,,,0.00,WXlink_for_OpenVMS,2013-04-21 19:00:00,
2013-04-21 15:05:00,54.1,24.0,30.25,SSE,153,0.0,4.0,31,0.00,,,0.00,WXlink_for_OpenVMS,2013-04-21 19:05:00,
2013-04-21 15:10:00,55.0,26.0,30.25,WSW,251,4.5,4.5,32,0.00,,,0.00,WXlink_for_OpenVMS,2013-04-21 19:10:00,
2013-04-21 15:15:00,56.1,27.0,30.25,SSW,207,2.2,3.6,32,0.00,,,0.00,WXlink_for_OpenVMS,2013-04-21 19:15:00,
2013-04-21 15:25:00,56.1,26.0,30.25,WNW,296,0.0,0.0,31,0.00,,,0.00,WXlink_for_OpenVMS,2013-04-21 19:25:00,
2013-04-21 15:30:00,56.3,27.0,30.25,SW,234,3.1,3.6,32,0.00,,,0.00,WXlink_for_OpenVMS,2013-04-21 19:30:00,
2013-04-21 15:35:00,54.9,25.0,30.25,NNE,22,0.0,2.2,31,0.00,,,0.00,WXlink_for_OpenVMS,2013-04-21 19:35:00,
2013-04-21 15:40:00,54.9,25.0,30.25,North,353,0.0,0.0,31,0.00,,,0.00,WXlink_for_OpenVMS,2013-04-21 19:40:00,
2013-04-21 15:50:00,54.9,25.0,30.25,NNW,327,0.0,0.0,31,0.00,,,0.00,WXlink_for_OpenVMS,2013-04-21 19:50:00,
2013-04-21 15:55:00,55.6,25.0,30.25,NW,321,0.0,0.0,31,0.00,,,0.00,WXlink_for_OpenVMS,2013-04-21 19:55:00,
2013-04-21 16:00:00,56.1,25.0,30.25,West,261,0.0,0.0,30,0.00,,,0.00,WXlink_for_OpenVMS,2013-04-21 20:00:00,
2013-04-21 16:05:00,55.8,25.0,30.25,NNW,345,2.2,4.0,30,0.00,,,0.00,WXlink_for_OpenVMS,2013-04-21 20:05:00,
2013-04-21 16:10:00,55.2,24.0,30.25,NW,324,0.0,0.0,30,0.00,,,0.00,WXlink_for_OpenVMS,2013-04-21 20:10:00,
2013-04-21 16:15:00,54.5,24.0,30.25,East,101,0.0,0.0,30,0.00,,,0.00,WXlink_for_OpenVMS,2013-04-21 20:15:00,
2013-04-21 16:20:00,54.5,24.0,30.25,NW,321,0.0,0.0,30,0.00,,,0.00,WXlink_for_OpenVMS,2013-04-21 20:20:00,
2013-04-21 16:25:00,54.7,24.0,30.25,NW,308,0.0,0.0,30,0.00,,,0.00,WXlink_for_OpenVMS,2013-04-21 20:25:00,
2013-04-21 16:30:00,55.2,25.0,30.25,South,179,0.0,0.0,31,0.00,,,0.00,WXlink_for_OpenVMS,2013-04-21 20:30:00,
2013-04-21 16:35:00,55.4,24.0,30.25,NNW,333,0.0,0.0,30,0.00,,,0.00,WXlink_for_OpenVMS,2013-04-21 20:35:00,
2013-04-21 16:45:00,54.7,23.0,30.25,NE,52,2.2,0.0,29,0.00,,,0.00,WXlink_for_OpenVMS,2013-04-21 20:45:00,
2013-04-21 16:50:00,54.7,23.0,30.25,NNW,333,0.0,0.0,29,0.00,,,0.00,WXlink_for_OpenVMS,2013-04-21 20:50:00,
2013-04-21 16:55:00,54.1,23.0,30.25,North,0,0.0,0.0,29,0.00,,,0.00,WXlink_for_OpenVMS,2013-04-21 20:55:00,
2013-04-21 17:00:00,53.4,21.0,30.25,SE,126,0.0,0.0,28,0.00,,,0.00,WXlink_for_OpenVMS,2013-04-21 21:00:00,
2013-04-21 17:05:00,53.8,22.0,30.25,NW,324,2.2,2.7,29,0.00,,,0.00,WXlink_for_OpenVMS,2013-04-21 21:05:00,
2013-04-21 17:10:00,54.1,22.0,30.25,NW,318,0.0,0.0,28,0.00,,,0.00,WXlink_for_OpenVMS,2013-04-21 21:10:00,
2013-04-21 17:15:00,53.8,21.0,30.28,NNW,328,0.0,0.0,28,0.00,,,0.00,WXlink_for_OpenVMS,2013-04-21 21:15:00,
2013-04-21 17:25:00,53.2,21.0,30.28,NW,306,0.0,0.0,28,0.00,,,0.00,WXlink_for_OpenVMS,2013-04-21 21:25:00,
2013-04-21 17:30:00,53.1,21.0,30.28,NE,34,0.0,0.0,28,0.00,,,0.00,WXlink_for_OpenVMS,2013-04-21 21:30:00,
2013-04-21 17:35:00,52.7,21.0,30.28,NNW,328,0.0,0.0,28,0.00,,,0.00,WXlink_for_OpenVMS,2013-04-21 21:35:00,
2013-04-21 17:40:00,52.7,21.0,30.28,NW,322,0.0,0.0,28,0.00,,,0.00,WXlink_for_OpenVMS,2013-04-21 21:40:00,
2013-04-21 17:50:00,53.1,21.0,30.28,NNW,329,0.0,0.0,28,0.00,,,0.00,WXlink_for_OpenVMS,2013-04-21 21:50:00,
2013-04-21 17:55:00,53.1,21.0,30.28,NNW,337,0.0,0.0,28,0.00,,,0.00,WXlink_for_OpenVMS,2013-04-21 21:55:00,
2013-04-21 18:00:00,53.1,21.0,30.28,NW,322,0.0,0.0,28,0.00,,,0.00,WXlink_for_OpenVMS,2013-04-21 22:00:00,
2013-04-21 18:05:00,53.1,21.0,30.28,NNW,327,0.0,0.0,28,0.00,,,0.00,WXlink_for_OpenVMS,2013-04-21 22:05:00,
2013-04-21 18:10:00,52.9,21.0,30.28,East,89,0.0,0.0,29,0.00,,,0.00,WXlink_for_OpenVMS,2013-04-21 22:10:00,
2013-04-21 18:15:00,52.7,21.0,30.28,NNE,26,0.0,0.0,28,0.00,,,0.00,WXlink_for_OpenVMS,2013-04-21 22:15:00,
2013-04-21 18:20:00,52.9,21.0,30.28,NW,318,3.1,3.1,28,0.00,,,0.00,WXlink_for_OpenVMS,2013-04-21 22:20:00,
2013-04-21 18:25:00,52.7,21.0,30.28,West,264,0.0,0.0,28,0.00,,,0.00,WXlink_for_OpenVMS,2013-04-21 22:25:00,
2013-04-21 18:35:00,52.2,21.0,30.28,NNW,328,0.0,0.0,29,0.00,,,0.00,WXlink_for_OpenVMS,2013-04-21 22:35:00,
2013-04-21 18:40:00,52.0,21.0,30.28,ESE,108,0.0,0.0,29,0.00,,,0.00,WXlink_for_OpenVMS,2013-04-21 22:40:00,
2013-04-21 18:45:00,51.6,20.0,30.28,ESE,108,0.0,0.0,29,0.00,,,0.00,WXlink_for_OpenVMS,2013-04-21 22:45:00,
2013-04-21 18:50:00,51.3,20.0,30.28,East,99,0.0,0.0,29,0.00,,,0.00,WXlink_for_OpenVMS,2013-04-21 22:50:00,
2013-04-21 18:55:00,51.1,21.0,30.28,East,81,0.0,0.0,31,0.00,,,0.00,WXlink_for_OpenVMS,2013-04-21 22:55:00,
2013-04-21 19:00:00,50.2,23.0,30.28,ESE,102,0.0,4.0,34,0.00,,,0.00,WXlink_for_OpenVMS,2013-04-21 23:00:00,
2013-04-21 19:05:00,49.8,24.0,30.28,East,101,0.0,0.0,36,0.00,,,0.00,WXlink_for_OpenVMS,2013-04-21 23:05:00,
2013-04-21 19:15:00,49.1,24.0,30.31,NW,319,0.0,0.0,37,0.00,,,0.00,WXlink_for_OpenVMS,2013-04-21 23:15:00,
2013-04-21 19:20:00,48.4,23.0,30.31,ESE,102,0.0,0.0,37,0.00,,,0.00,WXlink_for_OpenVMS,2013-04-21 23:20:00,
2013-04-21 19:25:00,47.8,23.0,30.31,East,89,0.0,0.0,37,0.00,,,0.00,WXlink_for_OpenVMS,2013-04-21 23:25:00,
2013-04-21 19:30:00,47.7,23.0,30.31,ENE,76,0.0,0.0,37,0.00,,,0.00,WXlink_for_OpenVMS,2013-04-21 23:30:00,
2013-04-21 19:35:00,47.3,23.0,30.31,ENE,64,0.0,0.0,38,0.00,,,0.00,WXlink_for_OpenVMS,2013-04-21 23:35:00,
2013-04-21 19:45:00,47.1,23.0,30.34,ESE,122,0.0,0.0,39,0.00,,,0.00,WXlink_for_OpenVMS,2013-04-21 23:45:00,
2013-04-21 19:50:00,46.9,23.0,30.34,ESE,122,0.0,0.0,39,0.00,,,0.00,WXlink_for_OpenVMS,2013-04-21 23:50:00,
2013-04-21 19:55:00,46.6,23.0,30.34,ESE,116,0.0,0.0,39,0.00,,,0.00,WXlink_for_OpenVMS,2013-04-21 23:55:00,
2013-04-21 20:00:00,46.2,23.0,30.34,ESE,116,0.0,0.0,40,0.00,,,0.00,WXlink_for_OpenVMS,2013-04-22 00:00:00,
2013-04-21 20:05:00,45.9,23.0,30.34,ESE,116,0.0,0.0,40,0.00,,,0.00,WXlink_for_OpenVMS,2013-04-22 00:05:00,
2013-04-21 20:10:00,45.5,23.0,30.34,ESE,116,0.0,0.0,40,0.00,,,0.00,WXlink_for_OpenVMS,2013-04-22 00:10:00,
2013-04-21 20:15:00,45.5,23.0,30.34,ESE,116,0.0,0.0,41,0.00,,,0.00,WXlink_for_OpenVMS,2013-04-22 00:15:00,
2013-04-21 20:25:00,44.8,23.0,30.34,ESE,116,0.0,0.0,42,0.00,,,0.00,WXlink_for_OpenVMS,2013-04-22 00:25:00,
2013-04-21 20:30:00,44.1,23.0,30.34,ESE,116,0.0,0.0,43,0.00,,,0.00,WXlink_for_OpenVMS,2013-04-22 00:30:00,
2013-04-21 20:35:00,43.7,23.0,30.34,ESE,116,0.0,0.0,43,0.00,,,0.00,WXlink_for_OpenVMS,2013-04-22 00:35:00,
2013-04-21 20:40:00,43.3,23.0,30.34,ESE,116,0.0,0.0,44,0.00,,,0.00,WXlink_for_OpenVMS,2013-04-22 00:40:00,
2013-04-21 20:45:00,43.0,23.0,30.37,ESE,116,0.0,0.0,44,0.00,,,0.00,WXlink_for_OpenVMS,2013-04-22 00:45:00,
2013-04-21 20:50:00,42.8,23.0,30.37,ESE,116,0.0,0.0,45,0.00,,,0.00,WXlink_for_OpenVMS,2013-04-22 00:50:00,
2013-04-21 20:55:00,42.6,23.0,30.37,ESE,116,0.0,0.0,46,0.00,,,0.00,WXlink_for_OpenVMS,2013-04-22 00:55:00,
2013-04-21 21:00:00,42.4,23.0,30.37,ESE,116,0.0,0.0,46,0.00,,,0.00,WXlink_for_OpenVMS,2013-04-22 01:00:00,
2013-04-21 21:05:00,42.3,23.0,30.37,ESE,116,0.0,0.0,47,0.00,,,0.00,WXlink_for_OpenVMS,2013-04-22 01:05:00,
2013-04-21 21:15:00,42.4,24.0,30.37,ESE,116,0.0,0.0,48,0.00,,,0.00,WXlink_for_OpenVMS,2013-04-22 01:15:00,
2013-04-21 21:20:00,42.1,24.0,30.37,ESE,116,0.0,0.0,48,0.00,,,0.00,WXlink_for_OpenVMS,2013-04-22 01:20:00,
2013-04-21 21:25:00,41.7,23.0,30.37,ESE,116,0.0,0.0,48,0.00,,,0.00,WXlink_for_OpenVMS,2013-04-22 01:25:00,
2013-04-21 21:30:00,41.7,24.0,30.37,ESE,116,0.0,0.0,49,0.00,,,0.00,WXlink_for_OpenVMS,2013-04-22 01:30:00,
2013-04-21 21:40:00,41.2,23.0,30.37,ESE,116,0.0,0.0,49,0.00,,,0.00,WXlink_for_OpenVMS,2013-04-22 01:40:00,
2013-04-21 21:45:00,41.0,23.0,30.37,ESE,116,0.0,0.0,49,0.00,,,0.00,WXlink_for_OpenVMS,2013-04-22 01:45:00,
2013-04-21 21:50:00,41.0,24.0,30.37,ESE,116,0.0,0.0,50,0.00,,,0.00,WXlink_for_OpenVMS,2013-04-22 01:50:00,
2013-04-21 21:55:00,41.0,24.0,30.37,ESE,116,0.0,0.0,50,0.00,,,0.00,WXlink_for_OpenVMS,2013-04-22 01:55:00,
2013-04-21 22:00:00,40.8,24.0,30.40,ESE,116,0.0,0.0,51,0.00,,,0.00,WXlink_for_OpenVMS,2013-04-22 02:00:00,
2013-04-21 22:05:00,40.5,24.0,30.40,ESE,116,0.0,0.0,51,0.00,,,0.00,WXlink_for_OpenVMS,2013-04-22 02:05:00,
2013-04-21 22:10:00,40.5,24.0,30.40,ESE,116,0.0,0.0,51,0.00,,,0.00,WXlink_for_OpenVMS,2013-04-22 02:10:00,
2013-04-21 22:15:00,40.1,24.0,30.40,ESE,116,0.0,0.0,52,0.00,,,0.00,WXlink_for_OpenVMS,2013-04-22 02:15:00,
2013-04-21 22:25:00,39.6,23.0,30.40,ESE,116,0.0,0.0,52,0.00,,,0.00,WXlink_for_OpenVMS,2013-04-22 02:25:00,
2013-04-21 22:30:00,39.7,24.0,30.40,ESE,116,0.0,0.0,53,0.00,,,0.00,WXlink_for_OpenVMS,2013-04-22 02:30:00,
2013-04-21 22:35:00,39.4,24.0,30.40,ESE,116,0.0,0.0,53,0.00,,,0.00,WXlink_for_OpenVMS,2013-04-22 02:35:00,
2013-04-21 22:40:00,39.0,23.0,30.40,ESE,116,0.0,0.0,53,0.00,,,0.00,WXlink_for_OpenVMS,2013-04-22 02:40:00,
2013-04-21 22:45:00,38.8,24.0,30.40,ESE,116,0.0,0.0,54,0.00,,,0.00,WXlink_for_OpenVMS,2013-04-22 02:45:00,
2013-04-21 22:50:00,38.8,24.0,30.40,ESE,116,0.0,0.0,54,0.00,,,0.00,WXlink_for_OpenVMS,2013-04-22 02:50:00,
2013-04-21 22:55:00,38.7,24.0,30.40,ESE,116,0.0,0.0,55,0.00,,,0.00,WXlink_for_OpenVMS,2013-04-22 02:55:00,
2013-04-21 23:00:00,38.5,24.0,30.40,ESE,116,0.0,0.0,56,0.00,,,0.00,WXlink_for_OpenVMS,2013-04-22 03:00:00,
2013-04-21 23:10:00,38.1,24.0,30.40,ESE,116,0.0,0.0,56,0.00,,,0.00,WXlink_for_OpenVMS,2013-04-22 03:10:00,
2013-04-21 23:15:00,38.1,24.0,30.40,ESE,116,0.0,0.0,57,0.00,,,0.00,WXlink_for_OpenVMS,2013-04-22 03:15:00,
2013-04-21 23:25:00,38.1,25.0,30.40,ESE,116,0.0,0.0,58,0.00,,,0.00,WXlink_for_OpenVMS,2013-04-22 03:25:00,
2013-04-21 23:30:00,37.6,24.0,30.40,ESE,116,0.0,0.0,58,0.00,,,0.00,WXlink_for_OpenVMS,2013-04-22 03:30:00,
2013-04-21 23:35:00,37.4,24.0,30.40,ESE,116,0.0,0.0,59,0.00,,,0.00,WXlink_for_OpenVMS,2013-04-22 03:35:00,
2013-04-21 23:40:00,37.6,25.0,30.40,ESE,116,0.0,0.0,59,0.00,,,0.00,WXlink_for_OpenVMS,2013-04-22 03:40:00,
2013-04-21 23:45:00,37.8,25.0,30.40,ESE,116,0.0,0.0,60,0.00,,,0.00,WXlink_for_OpenVMS,2013-04-22 03:45:00,
2013-04-21 23:50:00,37.8,26.0,30.40,ESE,116,0.0,0.0,61,0.00,,,0.00,WXlink_for_OpenVMS,2013-04-22 03:50:00,
2013-04-21 23:55:00,37.8,26.0,30.40,ESE,116,0.0,0.0,61,0.00,,,0.00,WXlink_for_OpenVMS,2013-04-22 03:55:00,